AAL2596 KMIA-TAPA
Flight info
| Callsign | AAL2596 |
|---|---|
| Flight time | N/A |
| Altitude | 39000 |
| Route | KLADA2 BITAC Y290 ELOPO B520 ANU |
| Aircraft | B38M/M-SDE1FGHILORVWXY/HB1 |
Departure
| Time | N/A |
|---|---|
| Airport | Miami International Airport (KMIA) |
Arrival
| Time | 2026-04-25 01:35 |
|---|---|
| Airport | V. C. Bird International Airport (TAPA) |
| Time | Latitude | Longitude | Altitude | Speed | Heading |
|---|---|---|---|---|---|
| 2026-04-25 01:14 | 17.47831 | -62.34078 | 36242 ft | 453 kts | 146° |
| 2026-04-25 01:14 | 17.45452 | -62.31949 | 35833 ft | 447 kts | 146° |
| 2026-04-25 01:14 | 17.43114 | -62.29846 | 35411 ft | 439 kts | 146° |
| 2026-04-25 01:15 | 17.40811 | -62.27771 | 34697 ft | 435 kts | 146° |
| 2026-04-25 01:15 | 17.38519 | -62.25704 | 33837 ft | 433 kts | 146° |
| 2026-04-25 01:15 | 17.36250 | -62.23658 | 32984 ft | 429 kts | 146° |
| 2026-04-25 01:15 | 17.34021 | -62.21649 | 32167 ft | 426 kts | 145° |
| 2026-04-25 01:16 | 17.31753 | -62.19607 | 31329 ft | 423 kts | 145° |
| 2026-04-25 01:16 | 17.29546 | -62.17640 | 30499 ft | 419 kts | 148° |
| 2026-04-25 01:16 | 17.27070 | -62.16179 | 29639 ft | 402 kts | 169° |
| 2026-04-25 01:16 | 17.24378 | -62.15845 | 28832 ft | 383 kts | 191° |
| 2026-04-25 01:17 | 17.21902 | -62.16651 | 28076 ft | 367 kts | 214° |
| 2026-04-25 01:17 | 17.20040 | -62.18393 | 27361 ft | 356 kts | 233° |
| 2026-04-25 01:17 | 17.18580 | -62.20465 | 26673 ft | 352 kts | 235° |
| 2026-04-25 01:17 | 17.17162 | -62.22535 | 25988 ft | 349 kts | 235° |
| 2026-04-25 01:18 | 17.15763 | -62.24590 | 25304 ft | 345 kts | 235° |
| 2026-04-25 01:18 | 17.14380 | -62.26634 | 24627 ft | 342 kts | 235° |
| 2026-04-25 01:18 | 17.13015 | -62.28663 | 23959 ft | 339 kts | 235° |
| 2026-04-25 01:18 | 17.11665 | -62.30677 | 23295 ft | 336 kts | 235° |
| 2026-04-25 01:19 | 17.10340 | -62.32650 | 22646 ft | 334 kts | 235° |
| 2026-04-25 01:19 | 17.09013 | -62.34626 | 21997 ft | 330 kts | 236° |
| 2026-04-25 01:19 | 17.08073 | -62.36780 | 21318 ft | 327 kts | 259° |
| 2026-04-25 01:19 | 17.08189 | -62.39131 | 20674 ft | 328 kts | 286° |
| 2026-04-25 01:20 | 17.09360 | -62.41175 | 20019 ft | 333 kts | 313° |
| 2026-04-25 01:20 | 17.11336 | -62.42446 | 19360 ft | 340 kts | 340° |
| 2026-04-25 01:20 | 17.13686 | -62.42786 | 18702 ft | 342 kts | 354° |
| 2026-04-25 01:20 | 17.16067 | -62.42868 | 18033 ft | 342 kts | 355° |
| 2026-04-25 01:21 | 17.18439 | -62.42952 | 17364 ft | 340 kts | 355° |
| 2026-04-25 01:21 | 17.20800 | -62.43043 | 16698 ft | 338 kts | 355° |
| 2026-04-25 01:21 | 17.23146 | -62.43149 | 16042 ft | 336 kts | 355° |
| 2026-04-25 01:21 | 17.25476 | -62.43264 | 15381 ft | 334 kts | 355° |
| 2026-04-25 01:22 | 17.27791 | -62.43388 | 14734 ft | 331 kts | 355° |
| 2026-04-25 01:22 | 17.30084 | -62.43517 | 14082 ft | 329 kts | 355° |
| 2026-04-25 01:22 | 17.32363 | -62.43659 | 13452 ft | 326 kts | 355° |
| 2026-04-25 01:22 | 17.34585 | -62.43751 | 12993 ft | 318 kts | 4° |
| 2026-04-25 01:23 | 17.36643 | -62.43040 | 12568 ft | 310 kts | 34° |
| 2026-04-25 01:23 | 17.38042 | -62.41405 | 12188 ft | 299 kts | 65° |
| 2026-04-25 01:23 | 17.38435 | -62.39337 | 11792 ft | 288 kts | 97° |
| 2026-04-25 01:23 | 17.37842 | -62.37394 | 11437 ft | 277 kts | 116° |
| 2026-04-25 01:24 | 17.37072 | -62.35555 | 11096 ft | 277 kts | 115° |
| 2026-04-25 01:24 | 17.36077 | -62.33805 | 10607 ft | 282 kts | 127° |
| 2026-04-25 01:24 | 17.34882 | -62.32165 | 10056 ft | 284 kts | 128° |
| 2026-04-25 01:24 | 17.33673 | -62.30524 | 9499 ft | 284 kts | 128° |
| 2026-04-25 01:25 | 17.32461 | -62.28896 | 8978 ft | 281 kts | 128° |
| 2026-04-25 01:25 | 17.31266 | -62.27307 | 8568 ft | 274 kts | 128° |
| 2026-04-25 01:25 | 17.30111 | -62.25793 | 8275 ft | 264 kts | 128° |
| 2026-04-25 01:25 | 17.28985 | -62.24320 | 8001 ft | 255 kts | 128° |
| 2026-04-25 01:26 | 17.27869 | -62.22850 | 7760 ft | 262 kts | 128° |
| 2026-04-25 01:26 | 17.26733 | -62.21333 | 7456 ft | 267 kts | 128° |
| 2026-04-25 01:26 | 17.25582 | -62.19793 | 7153 ft | 269 kts | 128° |
| 2026-04-25 01:26 | 17.24427 | -62.18258 | 6880 ft | 268 kts | 128° |
| 2026-04-25 01:27 | 17.23272 | -62.16726 | 6591 ft | 268 kts | 128° |
| 2026-04-25 01:27 | 17.22119 | -62.15199 | 6273 ft | 267 kts | 128° |
| 2026-04-25 01:27 | 17.20972 | -62.13680 | 5988 ft | 264 kts | 128° |
| 2026-04-25 01:28 | 17.18707 | -62.10686 | 5417 ft | 260 kts | 128° |
| 2026-04-25 01:28 | 17.17588 | -62.09206 | 5139 ft | 258 kts | 128° |
| 2026-04-25 01:28 | 17.16481 | -62.07742 | 4891 ft | 254 kts | 128° |
| 2026-04-25 01:28 | 17.15414 | -62.06333 | 4754 ft | 246 kts | 128° |
| 2026-04-25 01:29 | 17.14371 | -62.04955 | 4627 ft | 237 kts | 128° |
| 2026-04-25 01:29 | 17.13368 | -62.03628 | 4508 ft | 228 kts | 128° |
| 2026-04-25 01:29 | 17.12391 | -62.02351 | 4365 ft | 223 kts | 132° |
| 2026-04-25 01:29 | 17.11175 | -62.01373 | 4150 ft | 221 kts | 147° |
| 2026-04-25 01:30 | 17.09874 | -62.00532 | 3920 ft | 217 kts | 146° |
| 2026-04-25 01:30 | 17.08606 | -61.99701 | 3773 ft | 211 kts | 147° |
| 2026-04-25 01:30 | 17.07369 | -61.98899 | 3631 ft | 210 kts | 147° |
| 2026-04-25 01:30 | 17.06158 | -61.98117 | 3602 ft | 196 kts | 146° |
| 2026-04-25 01:31 | 17.05065 | -61.97349 | 3448 ft | 184 kts | 134° |
| 2026-04-25 01:31 | 17.04475 | -61.96203 | 3142 ft | 181 kts | 99° |
| 2026-04-25 01:31 | 17.04600 | -61.94913 | 2853 ft | 181 kts | 69° |
| 2026-04-25 01:31 | 17.05174 | -61.93786 | 2653 ft | 171 kts | 62° |
| 2026-04-25 01:32 | 17.05772 | -61.92725 | 2482 ft | 169 kts | 61° |
| 2026-04-25 01:32 | 17.06377 | -61.91668 | 2374 ft | 170 kts | 60° |
| 2026-04-25 01:32 | 17.06984 | -61.90612 | 2271 ft | 168 kts | 60° |
| 2026-04-25 01:32 | 17.07596 | -61.89562 | 2093 ft | 169 kts | 60° |
| 2026-04-25 01:33 | 17.08203 | -61.88525 | 1927 ft | 169 kts | 60° |
| 2026-04-25 01:33 | 17.08789 | -61.87518 | 1732 ft | 155 kts | 59° |
| 2026-04-25 01:33 | 17.09343 | -61.86583 | 1556 ft | 149 kts | 59° |
| 2026-04-25 01:33 | 17.09883 | -61.85663 | 1349 ft | 148 kts | 59° |
| 2026-04-25 01:34 | 17.10434 | -61.84767 | 1100 ft | 143 kts | 57° |
| 2026-04-25 01:34 | 17.10950 | -61.83878 | 908 ft | 142 kts | 61° |
| 2026-04-25 01:34 | 17.11468 | -61.82991 | 695 ft | 147 kts | 59° |
| 2026-04-25 01:34 | 17.12014 | -61.82057 | 508 ft | 152 kts | 59° |
| 2026-04-25 01:35 | 17.12559 | -61.81138 | 300 ft | 146 kts | 58° |
| 2026-04-25 01:35 | 17.13090 | -61.80249 | 93 ft | 141 kts | 56° |
| 2026-04-25 01:35 | 17.13547 | -61.79479 | 59 ft | 94 kts | 58° |
| 2026-04-25 01:35 | 17.13768 | -61.79106 | 53 ft | 27 kts | 58° |
| 2026-04-25 01:36 | 17.13807 | -61.79071 | 51 ft | 2 kts | 345° |
| 2026-04-25 01:36 | 17.13813 | -61.79077 | 53 ft | 2 kts | 313° |
| 2026-04-25 01:36 | 17.13829 | -61.79095 | 51 ft | 5 kts | 316° |
| 2026-04-25 01:36 | 17.13860 | -61.79120 | 51 ft | 6 kts | 325° |
| 2026-04-25 01:37 | 17.13892 | -61.79140 | 54 ft | 2 kts | 344° |
| 2026-04-25 01:37 | 17.13912 | -61.79138 | 52 ft | 4 kts | 13° |
| 2026-04-25 01:37 | 17.13925 | -61.79134 | 53 ft | 2 kts | 23° |
| 2026-04-25 01:37 | 17.13934 | -61.79129 | 52 ft | 3 kts | 26° |
| 2026-04-25 01:38 | 17.13967 | -61.79116 | 49 ft | 7 kts | 5° |
| 2026-04-25 01:38 | 17.13989 | -61.79119 | 51 ft | 1 kts | 349° |
| 2026-04-25 01:38 | 17.14006 | -61.79124 | 52 ft | 4 kts | 339° |
| 2026-04-25 01:38 | 17.14019 | -61.79130 | 54 ft | 1 kts | 337° |
| 2026-04-25 01:39 | 17.14024 | -61.79132 | 54 ft | 1 kts | 338° |